sensor_id;sensor_type;location;lat;lon;timestamp;temperature;humidity
27619;DHT22;15039;50.830;4.730;2023-03-01T00:00:44;0.00;99.90
27619;DHT22;15039;50.830;4.730;2023-03-01T00:03:12;-0.10;99.90
27619;DHT22;15039;50.830;4.730;2023-03-01T00:05:46;-0.10;99.90
27619;DHT22;15039;50.830;4.730;2023-03-01T00:08:12;0.30;99.90
27619;DHT22;15039;50.830;4.730;2023-03-01T00:10:37;0.40;99.90
27619;DHT22;15039;50.830;4.730;2023-03-01T00:13:03;0.40;99.90
27619;DHT22;15039;50.830;4.730;2023-03-01T00:15:31;0.20;99.90
27619;DHT22;15039;50.830;4.730;2023-03-01T00:17:57;0.10;99.90
27619;DHT22;15039;50.830;4.730;2023-03-01T00:20:23;0.00;99.90
27619;DHT22;15039;50.830;4.730;2023-03-01T00:22:48;0.10;99.90
27619;DHT22;15039;50.830;4.730;2023-03-01T00:25:14;0.20;99.90
27619;DHT22;15039;50.830;4.730;2023-03-01T00:27:40;0.10;99.90
27619;DHT22;15039;50.830;4.730;2023-03-01T00:30:06;0.20;99.90
27619;DHT22;15039;50.830;4.730;2023-03-01T00:32:32;0.10;99.90
27619;DHT22;15039;50.830;4.730;2023-03-01T00:34:57;-0.10;99.90
27619;DHT22;15039;50.830;4.730;2023-03-01T00:37:23;-0.30;99.90
27619;DHT22;15039;50.830;4.730;2023-03-01T00:39:49;-0.50;99.90
27619;DHT22;15039;50.830;4.730;2023-03-01T00:42:16;-0.50;99.90
27619;DHT22;15039;50.830;4.730;2023-03-01T00:44:41;-0.50;99.90
27619;DHT22;15039;50.830;4.730;2023-03-01T00:47:07;-0.30;99.90
27619;DHT22;15039;50.830;4.730;2023-03-01T00:49:33;-0.50;99.90
27619;DHT22;15039;50.830;4.730;2023-03-01T00:51:58;-0.50;99.90
27619;DHT22;15039;50.830;4.730;2023-03-01T00:54:24;-0.60;99.90
27619;DHT22;15039;50.830;4.730;2023-03-01T00:56:50;-0.60;99.90
27619;DHT22;15039;50.830;4.730;2023-03-01T00:59:15;-0.50;99.90
27619;DHT22;15039;50.830;4.730;2023-03-01T01:01:41;-0.50;99.90
27619;DHT22;15039;50.830;4.730;2023-03-01T01:04:09;-0.80;99.90
27619;DHT22;15039;50.830;4.730;2023-03-01T01:06:41;-0.90;99.90
27619;DHT22;15039;50.830;4.730;2023-03-01T01:09:16;-0.80;99.90
27619;DHT22;15039;50.830;4.730;2023-03-01T01:11:49;-0.50;99.90
27619;DHT22;15039;50.830;4.730;2023-03-01T01:14:15;-0.30;99.90
27619;DHT22;15039;50.830;4.730;2023-03-01T01:16:42;-0.20;99.90
27619;DHT22;15039;50.830;4.730;2023-03-01T01:19:10;0.00;99.90
27619;DHT22;15039;50.830;4.730;2023-03-01T01:21:36;0.20;99.90
27619;DHT22;15039;50.830;4.730;2023-03-01T01:24:03;0.20;99.90
27619;DHT22;15039;50.830;4.730;2023-03-01T01:26:32;0.20;99.90
27619;DHT22;15039;50.830;4.730;2023-03-01T01:28:59;0.10;99.90
27619;DHT22;15039;50.830;4.730;2023-03-01T01:31:26;-0.30;99.90
27619;DHT22;15039;50.830;4.730;2023-03-01T01:33:52;-0.30;99.90
27619;DHT22;15039;50.830;4.730;2023-03-01T01:36:18;-0.20;99.90
27619;DHT22;15039;50.830;4.730;2023-03-01T01:38:44;0.00;99.90
27619;DHT22;15039;50.830;4.730;2023-03-01T01:41:11;-0.30;99.90
27619;DHT22;15039;50.830;4.730;2023-03-01T01:43:48;-0.20;99.90
27619;DHT22;15039;50.830;4.730;2023-03-01T01:46:32;-0.30;99.90
27619;DHT22;15039;50.830;4.730;2023-03-01T01:49:03;-0.20;99.90
27619;DHT22;15039;50.830;4.730;2023-03-01T01:51:39;-0.10;99.90
27619;DHT22;15039;50.830;4.730;2023-03-01T01:54:14;0.10;99.90
27619;DHT22;15039;50.830;4.730;2023-03-01T01:56:45;0.30;99.90
27619;DHT22;15039;50.830;4.730;2023-03-01T01:59:12;0.20;99.90
27619;DHT22;15039;50.830;4.730;2023-03-01T02:01:38;0.00;99.90
27619;DHT22;15039;50.830;4.730;2023-03-01T02:04:04;0.00;99.90
27619;DHT22;15039;50.830;4.730;2023-03-01T02:06:35;-0.10;99.90
27619;DHT22;15039;50.830;4.730;2023-03-01T02:09:07;-0.30;99.90
27619;DHT22;15039;50.830;4.730;2023-03-01T02:11:33;-0.60;99.90
27619;DHT22;15039;50.830;4.730;2023-03-01T02:14:00;-0.60;99.90
27619;DHT22;15039;50.830;4.730;2023-03-01T02:16:26;-0.60;99.90
27619;DHT22;15039;50.830;4.730;2023-03-01T02:18:52;-0.50;99.90
27619;DHT22;15039;50.830;4.730;2023-03-01T02:24:31;-0.70;99.90
27619;DHT22;15039;50.830;4.730;2023-03-01T02:27:00;-0.90;99.90
27619;DHT22;15039;50.830;4.730;2023-03-01T02:29:27;-1.00;99.90
27619;DHT22;15039;50.830;4.730;2023-03-01T02:31:55;-1.10;99.90
27619;DHT22;15039;50.830;4.730;2023-03-01T02:34:24;-1.20;99.90
27619;DHT22;15039;50.830;4.730;2023-03-01T02:36:57;-1.20;99.90
27619;DHT22;15039;50.830;4.730;2023-03-01T02:39:35;-1.20;99.90
27619;DHT22;15039;50.830;4.730;2023-03-01T02:42:03;-1.30;99.90
27619;DHT22;15039;50.830;4.730;2023-03-01T02:44:29;-1.30;99.90
27619;DHT22;15039;50.830;4.730;2023-03-01T02:46:56;-1.30;99.90
27619;DHT22;15039;50.830;4.730;2023-03-01T02:49:28;-1.30;99.90
27619;DHT22;15039;50.830;4.730;2023-03-01T02:57:02;-1.50;99.90
27619;DHT22;15039;50.830;4.730;2023-03-01T02:59:31;-1.60;99.90
27619;DHT22;15039;50.830;4.730;2023-03-01T03:02:00;-1.50;99.90
27619;DHT22;15039;50.830;4.730;2023-03-01T03:04:26;-1.50;99.90
27619;DHT22;15039;50.830;4.730;2023-03-01T03:06:52;-1.50;99.90
27619;DHT22;15039;50.830;4.730;2023-03-01T03:09:18;-1.50;99.90
27619;DHT22;15039;50.830;4.730;2023-03-01T03:11:44;-1.30;99.90
27619;DHT22;15039;50.830;4.730;2023-03-01T03:14:12;-1.20;99.90
27619;DHT22;15039;50.830;4.730;2023-03-01T03:16:43;-1.30;99.90
27619;DHT22;15039;50.830;4.730;2023-03-01T03:19:10;-1.20;99.90
27619;DHT22;15039;50.830;4.730;2023-03-01T03:21:36;-1.10;99.90
27619;DHT22;15039;50.830;4.730;2023-03-01T03:24:02;-1.30;99.90
27619;DHT22;15039;50.830;4.730;2023-03-01T03:26:27;-1.20;99.90
27619;DHT22;15039;50.830;4.730;2023-03-01T03:28:53;-1.10;99.90
27619;DHT22;15039;50.830;4.730;2023-03-01T03:31:19;-1.00;99.90
27619;DHT22;15039;50.830;4.730;2023-03-01T03:33:45;-0.90;99.90
27619;DHT22;15039;50.830;4.730;2023-03-01T03:36:19;-0.90;99.90
27619;DHT22;15039;50.830;4.730;2023-03-01T03:38:45;-0.80;99.90
27619;DHT22;15039;50.830;4.730;2023-03-01T03:41:11;-1.00;99.90
27619;DHT22;15039;50.830;4.730;2023-03-01T03:43:40;-0.90;99.90
27619;DHT22;15039;50.830;4.730;2023-03-01T03:46:06;-1.00;99.90
27619;DHT22;15039;50.830;4.730;2023-03-01T03:48:37;-1.30;99.90
27619;DHT22;15039;50.830;4.730;2023-03-01T03:51:03;-1.10;99.90
27619;DHT22;15039;50.830;4.730;2023-03-01T03:53:32;-1.10;99.90
27619;DHT22;15039;50.830;4.730;2023-03-01T03:55:58;-1.30;99.90
27619;DHT22;15039;50.830;4.730;2023-03-01T03:58:25;-1.20;99.90
27619;DHT22;15039;50.830;4.730;2023-03-01T04:00:53;-1.30;99.90
27619;DHT22;15039;50.830;4.730;2023-03-01T04:03:21;-1.20;99.90
27619;DHT22;15039;50.830;4.730;2023-03-01T04:05:47;-1.40;99.90
27619;DHT22;15039;50.830;4.730;2023-03-01T04:08:15;-1.60;99.90
27619;DHT22;15039;50.830;4.730;2023-03-01T04:10:45;-1.70;99.90
27619;DHT22;15039;50.830;4.730;2023-03-01T04:13:13;-1.80;99.90
27619;DHT22;15039;50.830;4.730;2023-03-01T04:15:39;-1.80;99.90
27619;DHT22;15039;50.830;4.730;2023-03-01T04:18:06;-1.70;99.90
27619;DHT22;15039;50.830;4.730;2023-03-01T04:20:33;-1.60;99.90
27619;DHT22;15039;50.830;4.730;2023-03-01T04:23:09;-1.50;99.90
27619;DHT22;15039;50.830;4.730;2023-03-01T04:25:51;-1.60;99.90
27619;DHT22;15039;50.830;4.730;2023-03-01T04:28:25;-1.60;99.90
27619;DHT22;15039;50.830;4.730;2023-03-01T04:30:56;-1.70;99.90
27619;DHT22;15039;50.830;4.730;2023-03-01T04:33:22;-1.60;99.90
27619;DHT22;15039;50.830;4.730;2023-03-01T04:35:49;-1.50;99.90
27619;DHT22;15039;50.830;4.730;2023-03-01T04:38:17;-1.60;99.90
27619;DHT22;15039;50.830;4.730;2023-03-01T04:40:42;-1.90;99.90
27619;DHT22;15039;50.830;4.730;2023-03-01T04:43:09;-1.90;99.90
27619;DHT22;15039;50.830;4.730;2023-03-01T04:45:35;-1.90;99.90
27619;DHT22;15039;50.830;4.730;2023-03-01T04:48:01;-2.00;99.90
27619;DHT22;15039;50.830;4.730;2023-03-01T04:50:27;-1.90;99.90
27619;DHT22;15039;50.830;4.730;2023-03-01T04:52:53;-1.90;99.90
27619;DHT22;15039;50.830;4.730;2023-03-01T04:55:19;-1.80;99.90
27619;DHT22;15039;50.830;4.730;2023-03-01T04:57:45;-1.70;99.90
27619;DHT22;15039;50.830;4.730;2023-03-01T05:00:13;-1.60;99.90
27619;DHT22;15039;50.830;4.730;2023-03-01T05:02:56;-1.70;99.90
27619;DHT22;15039;50.830;4.730;2023-03-01T05:07:53;-2.00;99.90
27619;DHT22;15039;50.830;4.730;2023-03-01T05:10:18;-2.10;99.90
27619;DHT22;15039;50.830;4.730;2023-03-01T05:12:44;-2.20;99.90
27619;DHT22;15039;50.830;4.730;2023-03-01T05:15:10;-2.10;99.90
27619;DHT22;15039;50.830;4.730;2023-03-01T05:17:35;-1.90;99.90
27619;DHT22;15039;50.830;4.730;2023-03-01T05:20:01;-1.80;99.90
27619;DHT22;15039;50.830;4.730;2023-03-01T05:22:31;-1.70;99.90
27619;DHT22;15039;50.830;4.730;2023-03-01T05:24:56;-1.50;99.90
27619;DHT22;15039;50.830;4.730;2023-03-01T05:27:22;-1.50;99.90
27619;DHT22;15039;50.830;4.730;2023-03-01T05:29:48;-1.50;99.90
27619;DHT22;15039;50.830;4.730;2023-03-01T05:32:13;-1.70;99.90
27619;DHT22;15039;50.830;4.730;2023-03-01T05:34:41;-2.00;99.90
27619;DHT22;15039;50.830;4.730;2023-03-01T05:37:06;-1.90;99.90
27619;DHT22;15039;50.830;4.730;2023-03-01T05:39:33;-2.00;99.90
27619;DHT22;15039;50.830;4.730;2023-03-01T05:42:00;-2.00;99.90
27619;DHT22;15039;50.830;4.730;2023-03-01T05:44:27;-1.90;99.90
27619;DHT22;15039;50.830;4.730;2023-03-01T05:46:54;-1.90;99.90
27619;DHT22;15039;50.830;4.730;2023-03-01T05:49:20;-2.10;99.90
27619;DHT22;15039;50.830;4.730;2023-03-01T05:51:50;-2.10;99.90
27619;DHT22;15039;50.830;4.730;2023-03-01T05:54:16;-2.10;99.90
27619;DHT22;15039;50.830;4.730;2023-03-01T05:56:42;-2.20;99.90
27619;DHT22;15039;50.830;4.730;2023-03-01T05:59:08;-2.20;99.90
27619;DHT22;15039;50.830;4.730;2023-03-01T06:01:35;-2.20;99.90
27619;DHT22;15039;50.830;4.730;2023-03-01T06:04:01;-2.20;99.90
27619;DHT22;15039;50.830;4.730;2023-03-01T06:06:27;-2.30;99.90
27619;DHT22;15039;50.830;4.730;2023-03-01T06:08:53;-2.40;99.90
27619;DHT22;15039;50.830;4.730;2023-03-01T06:11:20;-2.30;99.90
27619;DHT22;15039;50.830;4.730;2023-03-01T06:13:46;-2.20;99.90
27619;DHT22;15039;50.830;4.730;2023-03-01T06:16:13;-2.20;99.90
27619;DHT22;15039;50.830;4.730;2023-03-01T06:18:40;-2.30;99.90
27619;DHT22;15039;50.830;4.730;2023-03-01T06:21:06;-2.40;99.90
27619;DHT22;15039;50.830;4.730;2023-03-01T06:23:33;-2.60;99.90
27619;DHT22;15039;50.830;4.730;2023-03-01T06:25:59;-2.40;99.90
27619;DHT22;15039;50.830;4.730;2023-03-01T06:28:25;-2.50;99.90
27619;DHT22;15039;50.830;4.730;2023-03-01T06:30:51;-2.30;99.90
27619;DHT22;15039;50.830;4.730;2023-03-01T06:33:18;-2.30;99.90
27619;DHT22;15039;50.830;4.730;2023-03-01T06:35:46;-2.30;99.90
27619;DHT22;15039;50.830;4.730;2023-03-01T06:38:11;-2.30;99.90
27619;DHT22;15039;50.830;4.730;2023-03-01T06:40:40;-2.50;99.90
27619;DHT22;15039;50.830;4.730;2023-03-01T06:43:06;-2.50;99.90
27619;DHT22;15039;50.830;4.730;2023-03-01T06:45:32;-2.50;99.90
27619;DHT22;15039;50.830;4.730;2023-03-01T06:48:03;-2.40;99.90
27619;DHT22;15039;50.830;4.730;2023-03-01T06:50:29;-2.40;99.90
27619;DHT22;15039;50.830;4.730;2023-03-01T06:52:57;-2.40;99.90
27619;DHT22;15039;50.830;4.730;2023-03-01T06:55:23;-2.30;99.90
27619;DHT22;15039;50.830;4.730;2023-03-01T06:57:54;-2.20;99.90
27619;DHT22;15039;50.830;4.730;2023-03-01T07:00:20;-2.20;99.90
27619;DHT22;15039;50.830;4.730;2023-03-01T07:02:46;-2.10;99.90
27619;DHT22;15039;50.830;4.730;2023-03-01T07:05:12;-2.20;99.90
27619;DHT22;15039;50.830;4.730;2023-03-01T07:07:37;-2.20;99.90
27619;DHT22;15039;50.830;4.730;2023-03-01T07:10:03;-2.20;99.90
27619;DHT22;15039;50.830;4.730;2023-03-01T07:12:29;-2.00;99.90
27619;DHT22;15039;50.830;4.730;2023-03-01T07:14:59;-1.90;99.90
27619;DHT22;15039;50.830;4.730;2023-03-01T07:17:25;-1.90;99.90
27619;DHT22;15039;50.830;4.730;2023-03-01T07:19:51;-1.90;99.90
27619;DHT22;15039;50.830;4.730;2023-03-01T07:22:16;-1.60;99.90
27619;DHT22;15039;50.830;4.730;2023-03-01T07:24:42;-1.60;99.90
27619;DHT22;15039;50.830;4.730;2023-03-01T07:27:08;-1.30;99.90
27619;DHT22;15039;50.830;4.730;2023-03-01T07:29:34;-1.10;99.90
27619;DHT22;15039;50.830;4.730;2023-03-01T07:32:02;-0.90;99.90
27619;DHT22;15039;50.830;4.730;2023-03-01T07:34:28;-0.90;99.90
27619;DHT22;15039;50.830;4.730;2023-03-01T07:36:55;-0.60;99.90
27619;DHT22;15039;50.830;4.730;2023-03-01T07:39:20;-0.60;99.90
27619;DHT22;15039;50.830;4.730;2023-03-01T07:41:48;-0.60;99.90
27619;DHT22;15039;50.830;4.730;2023-03-01T07:44:14;-0.60;99.90
27619;DHT22;15039;50.830;4.730;2023-03-01T07:46:40;-0.40;99.90
27619;DHT22;15039;50.830;4.730;2023-03-01T07:49:09;-0.40;99.90
27619;DHT22;15039;50.830;4.730;2023-03-01T07:51:35;-0.60;99.90
27619;DHT22;15039;50.830;4.730;2023-03-01T07:54:01;-0.40;99.90
27619;DHT22;15039;50.830;4.730;2023-03-01T07:56:26;-0.30;99.90
27619;DHT22;15039;50.830;4.730;2023-03-01T07:58:52;-0.20;99.90
27619;DHT22;15039;50.830;4.730;2023-03-01T08:01:20;-0.10;99.90
27619;DHT22;15039;50.830;4.730;2023-03-01T08:03:46;-0.10;99.90
27619;DHT22;15039;50.830;4.730;2023-03-01T08:06:15;0.10;99.90
27619;DHT22;15039;50.830;4.730;2023-03-01T08:08:41;0.10;99.90
27619;DHT22;15039;50.830;4.730;2023-03-01T08:11:09;0.10;99.90
27619;DHT22;15039;50.830;4.730;2023-03-01T08:13:35;0.10;99.90
27619;DHT22;15039;50.830;4.730;2023-03-01T08:16:09;0.10;99.90
27619;DHT22;15039;50.830;4.730;2023-03-01T08:18:35;0.20;99.90
27619;DHT22;15039;50.830;4.730;2023-03-01T08:21:12;0.30;99.90
27619;DHT22;15039;50.830;4.730;2023-03-01T08:23:38;0.40;99.90
27619;DHT22;15039;50.830;4.730;2023-03-01T08:26:10;0.50;99.90
27619;DHT22;15039;50.830;4.730;2023-03-01T08:28:37;0.50;99.90
27619;DHT22;15039;50.830;4.730;2023-03-01T08:31:03;0.50;99.90
27619;DHT22;15039;50.830;4.730;2023-03-01T08:33:28;0.60;99.90
27619;DHT22;15039;50.830;4.730;2023-03-01T08:36:03;0.70;99.90
27619;DHT22;15039;50.830;4.730;2023-03-01T08:38:28;0.80;99.90
27619;DHT22;15039;50.830;4.730;2023-03-01T08:40:54;0.90;99.90
27619;DHT22;15039;50.830;4.730;2023-03-01T08:43:20;0.80;99.90
27619;DHT22;15039;50.830;4.730;2023-03-01T08:45:48;0.90;99.90
27619;DHT22;15039;50.830;4.730;2023-03-01T08:48:14;0.90;99.90
27619;DHT22;15039;50.830;4.730;2023-03-01T08:50:39;0.90;99.90
27619;DHT22;15039;50.830;4.730;2023-03-01T08:53:05;1.00;99.90
27619;DHT22;15039;50.830;4.730;2023-03-01T08:55:31;1.00;99.90
27619;DHT22;15039;50.830;4.730;2023-03-01T08:57:56;1.10;99.90
27619;DHT22;15039;50.830;4.730;2023-03-01T09:00:24;1.10;99.90
27619;DHT22;15039;50.830;4.730;2023-03-01T09:02:50;1.20;99.90
27619;DHT22;15039;50.830;4.730;2023-03-01T09:05:15;1.20;99.90
27619;DHT22;15039;50.830;4.730;2023-03-01T09:07:41;1.40;99.90
27619;DHT22;15039;50.830;4.730;2023-03-01T09:10:07;1.50;99.90
27619;DHT22;15039;50.830;4.730;2023-03-01T09:12:33;1.60;99.90
27619;DHT22;15039;50.830;4.730;2023-03-01T09:14:59;1.50;99.90
27619;DHT22;15039;50.830;4.730;2023-03-01T09:17:26;1.60;99.90
27619;DHT22;15039;50.830;4.730;2023-03-01T09:19:51;1.70;99.90
27619;DHT22;15039;50.830;4.730;2023-03-01T09:22:17;1.70;99.90
27619;DHT22;15039;50.830;4.730;2023-03-01T09:24:43;1.60;99.90
27619;DHT22;15039;50.830;4.730;2023-03-01T09:27:09;1.60;99.90
27619;DHT22;15039;50.830;4.730;2023-03-01T09:29:36;1.70;99.90
27619;DHT22;15039;50.830;4.730;2023-03-01T09:32:02;1.70;99.90
27619;DHT22;15039;50.830;4.730;2023-03-01T09:34:27;1.80;99.90
27619;DHT22;15039;50.830;4.730;2023-03-01T09:36:53;1.90;99.90
27619;DHT22;15039;50.830;4.730;2023-03-01T09:39:19;2.00;99.90
27619;DHT22;15039;50.830;4.730;2023-03-01T09:42:02;2.00;99.90
27619;DHT22;15039;50.830;4.730;2023-03-01T09:44:36;2.20;99.90
27619;DHT22;15039;50.830;4.730;2023-03-01T09:47:03;2.30;99.90
27619;DHT22;15039;50.830;4.730;2023-03-01T09:49:33;2.20;99.90
27619;DHT22;15039;50.830;4.730;2023-03-01T09:52:13;2.30;99.90
27619;DHT22;15039;50.830;4.730;2023-03-01T09:54:49;2.40;99.90
27619;DHT22;15039;50.830;4.730;2023-03-01T09:57:28;2.50;99.90
27619;DHT22;15039;50.830;4.730;2023-03-01T10:02:51;2.60;99.90
27619;DHT22;15039;50.830;4.730;2023-03-01T10:10:40;2.70;99.90
27619;DHT22;15039;50.830;4.730;2023-03-01T10:13:23;2.70;99.90
27619;DHT22;15039;50.830;4.730;2023-03-01T10:15:55;2.90;99.90
27619;DHT22;15039;50.830;4.730;2023-03-01T10:18:30;2.90;99.90
27619;DHT22;15039;50.830;4.730;2023-03-01T10:21:02;3.10;99.90
27619;DHT22;15039;50.830;4.730;2023-03-01T10:23:32;3.30;99.90
27619;DHT22;15039;50.830;4.730;2023-03-01T10:29:09;3.50;99.90
27619;DHT22;15039;50.830;4.730;2023-03-01T10:31:47;3.50;99.90
27619;DHT22;15039;50.830;4.730;2023-03-01T10:34:25;3.50;99.90
27619;DHT22;15039;50.830;4.730;2023-03-01T10:36:55;3.60;99.90
27619;DHT22;15039;50.830;4.730;2023-03-01T10:39:24;3.70;99.90
27619;DHT22;15039;50.830;4.730;2023-03-01T10:44:53;3.80;99.90
27619;DHT22;15039;50.830;4.730;2023-03-01T10:47:25;3.70;99.90
27619;DHT22;15039;50.830;4.730;2023-03-01T10:52:22;3.80;99.90
27619;DHT22;15039;50.830;4.730;2023-03-01T10:54:57;3.90;99.90
27619;DHT22;15039;50.830;4.730;2023-03-01T10:57:33;4.00;99.90
27619;DHT22;15039;50.830;4.730;2023-03-01T11:00:23;4.10;99.90
27619;DHT22;15039;50.830;4.730;2023-03-01T11:03:08;4.10;99.90
27619;DHT22;15039;50.830;4.730;2023-03-01T11:05:35;4.20;99.90
27619;DHT22;15039;50.830;4.730;2023-03-01T11:08:02;4.40;99.90
27619;DHT22;15039;50.830;4.730;2023-03-01T11:10:31;4.50;99.90
27619;DHT22;15039;50.830;4.730;2023-03-01T11:13:18;4.60;99.90
27619;DHT22;15039;50.830;4.730;2023-03-01T11:16:02;4.60;99.90
27619;DHT22;15039;50.830;4.730;2023-03-01T11:18:30;4.60;99.90
27619;DHT22;15039;50.830;4.730;2023-03-01T11:20:57;4.60;99.90
27619;DHT22;15039;50.830;4.730;2023-03-01T11:23:24;4.60;99.90
27619;DHT22;15039;50.830;4.730;2023-03-01T11:26:02;4.60;99.90
27619;DHT22;15039;50.830;4.730;2023-03-01T11:28:29;4.50;99.90
27619;DHT22;15039;50.830;4.730;2023-03-01T11:31:06;4.60;99.90
27619;DHT22;15039;50.830;4.730;2023-03-01T11:34:06;4.60;99.90
27619;DHT22;15039;50.830;4.730;2023-03-01T11:37:09;4.70;99.90
27619;DHT22;15039;50.830;4.730;2023-03-01T11:39:47;4.80;99.90
27619;DHT22;15039;50.830;4.730;2023-03-01T11:42:19;4.80;99.90
27619;DHT22;15039;50.830;4.730;2023-03-01T11:44:52;4.80;99.90
27619;DHT22;15039;50.830;4.730;2023-03-01T11:53:09;4.90;99.90
27619;DHT22;15039;50.830;4.730;2023-03-01T11:55:53;4.90;99.90
27619;DHT22;15039;50.830;4.730;2023-03-01T11:58:26;5.00;99.90
27619;DHT22;15039;50.830;4.730;2023-03-01T12:04:16;5.00;99.90
27619;DHT22;15039;50.830;4.730;2023-03-01T12:07:04;5.20;99.90
27619;DHT22;15039;50.830;4.730;2023-03-01T12:17:52;5.40;99.90
27619;DHT22;15039;50.830;4.730;2023-03-01T12:25:41;5.50;99.90
27619;DHT22;15039;50.830;4.730;2023-03-01T12:28:25;5.60;99.90
27619;DHT22;15039;50.830;4.730;2023-03-01T12:31:32;5.50;99.90
27619;DHT22;15039;50.830;4.730;2023-03-01T12:39:44;5.80;99.90
27619;DHT22;15039;50.830;4.730;2023-03-01T12:47:37;5.80;99.90
27619;DHT22;15039;50.830;4.730;2023-03-01T12:55:47;5.80;99.90
27619;DHT22;15039;50.830;4.730;2023-03-01T12:58:35;5.90;99.90
27619;DHT22;15039;50.830;4.730;2023-03-01T13:01:22;6.00;99.90
27619;DHT22;15039;50.830;4.730;2023-03-01T13:04:18;5.90;99.90
27619;DHT22;15039;50.830;4.730;2023-03-01T13:17:56;6.00;99.90
27619;DHT22;15039;50.830;4.730;2023-03-01T13:20:45;6.20;99.90
27619;DHT22;15039;50.830;4.730;2023-03-01T13:23:34;6.30;99.90
27619;DHT22;15039;50.830;4.730;2023-03-01T13:26:16;6.30;99.90
27619;DHT22;15039;50.830;4.730;2023-03-01T13:33:49;6.10;99.90
27619;DHT22;15039;50.830;4.730;2023-03-01T13:46:50;6.30;99.90
27619;DHT22;15039;50.830;4.730;2023-03-01T13:49:20;6.40;99.90
27619;DHT22;15039;50.830;4.730;2023-03-01T13:51:47;6.50;99.90
27619;DHT22;15039;50.830;4.730;2023-03-01T13:54:15;6.50;99.90
27619;DHT22;15039;50.830;4.730;2023-03-01T13:56:42;6.60;99.90
27619;DHT22;15039;50.830;4.730;2023-03-01T13:59:20;6.60;99.90
27619;DHT22;15039;50.830;4.730;2023-03-01T14:01:59;6.40;99.90
27619;DHT22;15039;50.830;4.730;2023-03-01T14:04:31;6.30;99.90
27619;DHT22;15039;50.830;4.730;2023-03-01T14:09:41;6.50;99.90
27619;DHT22;15039;50.830;4.730;2023-03-01T14:12:30;6.60;99.90
27619;DHT22;15039;50.830;4.730;2023-03-01T14:18:34;6.70;99.90
27619;DHT22;15039;50.830;4.730;2023-03-01T14:20:43;6.60;99.90
27619;DHT22;15039;50.830;4.730;2023-03-01T14:23:19;6.50;99.90
27619;DHT22;15039;50.830;4.730;2023-03-01T14:25:50;6.50;99.90
27619;DHT22;15039;50.830;4.730;2023-03-01T14:28:20;6.50;99.90
27619;DHT22;15039;50.830;4.730;2023-03-01T14:30:51;6.60;99.90
27619;DHT22;15039;50.830;4.730;2023-03-01T14:36:03;6.80;99.90
27619;DHT22;15039;50.830;4.730;2023-03-01T14:38:35;6.90;99.90
27619;DHT22;15039;50.830;4.730;2023-03-01T14:41:10;7.00;99.90
27619;DHT22;15039;50.830;4.730;2023-03-01T14:43:41;7.00;99.90
27619;DHT22;15039;50.830;4.730;2023-03-01T14:46:21;7.00;99.90
27619;DHT22;15039;50.830;4.730;2023-03-01T14:48:53;6.90;99.90
27619;DHT22;15039;50.830;4.730;2023-03-01T14:51:19;6.90;99.90
27619;DHT22;15039;50.830;4.730;2023-03-01T14:53:45;7.00;99.90
27619;DHT22;15039;50.830;4.730;2023-03-01T14:56:15;6.90;99.90
27619;DHT22;15039;50.830;4.730;2023-03-01T14:58:44;6.80;99.90
27619;DHT22;15039;50.830;4.730;2023-03-01T15:01:15;6.90;99.90
27619;DHT22;15039;50.830;4.730;2023-03-01T15:03:44;7.00;99.90
27619;DHT22;15039;50.830;4.730;2023-03-01T15:06:11;7.00;99.90
27619;DHT22;15039;50.830;4.730;2023-03-01T15:08:44;7.10;99.90
27619;DHT22;15039;50.830;4.730;2023-03-01T15:11:30;7.00;99.90
27619;DHT22;15039;50.830;4.730;2023-03-01T15:13:56;6.90;99.90
27619;DHT22;15039;50.830;4.730;2023-03-01T15:16:26;6.90;99.90
27619;DHT22;15039;50.830;4.730;2023-03-01T15:18:54;6.90;99.90
27619;DHT22;15039;50.830;4.730;2023-03-01T15:24:06;7.00;99.90
27619;DHT22;15039;50.830;4.730;2023-03-01T15:26:44;7.00;99.90
27619;DHT22;15039;50.830;4.730;2023-03-01T15:29:17;7.10;99.90
27619;DHT22;15039;50.830;4.730;2023-03-01T15:32:00;7.10;99.90
27619;DHT22;15039;50.830;4.730;2023-03-01T15:36:59;7.30;99.90
27619;DHT22;15039;50.830;4.730;2023-03-01T15:39:39;7.20;99.90
27619;DHT22;15039;50.830;4.730;2023-03-01T15:42:38;7.10;99.90
27619;DHT22;15039;50.830;4.730;2023-03-01T15:47:47;7.10;99.90
27619;DHT22;15039;50.830;4.730;2023-03-01T15:50:26;7.00;99.90
27619;DHT22;15039;50.830;4.730;2023-03-01T15:52:53;7.00;99.90
27619;DHT22;15039;50.830;4.730;2023-03-01T15:55:23;7.10;99.90
27619;DHT22;15039;50.830;4.730;2023-03-01T15:57:49;7.00;99.90
27619;DHT22;15039;50.830;4.730;2023-03-01T16:00:16;6.90;99.90
27619;DHT22;15039;50.830;4.730;2023-03-01T16:02:43;7.00;99.90
27619;DHT22;15039;50.830;4.730;2023-03-01T16:05:27;6.90;99.90
27619;DHT22;15039;50.830;4.730;2023-03-01T16:07:53;7.00;99.90
27619;DHT22;15039;50.830;4.730;2023-03-01T16:10:19;7.00;99.90
27619;DHT22;15039;50.830;4.730;2023-03-01T16:12:45;7.00;99.90
27619;DHT22;15039;50.830;4.730;2023-03-01T16:15:31;7.10;99.90
27619;DHT22;15039;50.830;4.730;2023-03-01T16:17:57;7.20;99.90
27619;DHT22;15039;50.830;4.730;2023-03-01T16:20:28;7.00;99.90
27619;DHT22;15039;50.830;4.730;2023-03-01T16:25:24;6.90;99.90
27619;DHT22;15039;50.830;4.730;2023-03-01T16:27:51;6.90;99.90
27619;DHT22;15039;50.830;4.730;2023-03-01T16:30:19;6.90;99.90
27619;DHT22;15039;50.830;4.730;2023-03-01T16:32:46;6.90;99.90
27619;DHT22;15039;50.830;4.730;2023-03-01T16:35:14;6.90;99.90
27619;DHT22;15039;50.830;4.730;2023-03-01T16:37:40;6.70;99.90
27619;DHT22;15039;50.830;4.730;2023-03-01T16:40:16;6.60;99.90
27619;DHT22;15039;50.830;4.730;2023-03-01T16:42:42;6.50;99.90
27619;DHT22;15039;50.830;4.730;2023-03-01T16:45:09;6.60;99.90
27619;DHT22;15039;50.830;4.730;2023-03-01T16:47:35;6.40;99.90
27619;DHT22;15039;50.830;4.730;2023-03-01T16:50:00;6.40;99.90
27619;DHT22;15039;50.830;4.730;2023-03-01T16:52:26;6.40;99.90
27619;DHT22;15039;50.830;4.730;2023-03-01T16:54:52;6.40;99.90
27619;DHT22;15039;50.830;4.730;2023-03-01T16:57:17;6.40;99.90
27619;DHT22;15039;50.830;4.730;2023-03-01T16:59:43;6.40;99.90
27619;DHT22;15039;50.830;4.730;2023-03-01T17:02:11;6.30;99.90
27619;DHT22;15039;50.830;4.730;2023-03-01T17:04:38;6.20;99.90
27619;DHT22;15039;50.830;4.730;2023-03-01T17:07:04;6.20;99.90
27619;DHT22;15039;50.830;4.730;2023-03-01T17:09:29;6.00;99.90
27619;DHT22;15039;50.830;4.730;2023-03-01T17:11:55;6.00;99.90
27619;DHT22;15039;50.830;4.730;2023-03-01T17:14:21;6.10;99.90
27619;DHT22;15039;50.830;4.730;2023-03-01T17:16:46;5.90;99.90
27619;DHT22;15039;50.830;4.730;2023-03-01T17:19:14;5.90;99.90
27619;DHT22;15039;50.830;4.730;2023-03-01T17:21:43;5.80;99.90
27619;DHT22;15039;50.830;4.730;2023-03-01T17:24:09;5.80;99.90
27619;DHT22;15039;50.830;4.730;2023-03-01T17:26:35;5.60;99.90
27619;DHT22;15039;50.830;4.730;2023-03-01T17:29:00;5.60;99.90
27619;DHT22;15039;50.830;4.730;2023-03-01T17:31:26;5.60;99.90
27619;DHT22;15039;50.830;4.730;2023-03-01T17:33:53;5.60;99.90
27619;DHT22;15039;50.830;4.730;2023-03-01T17:36:19;5.50;99.90
27619;DHT22;15039;50.830;4.730;2023-03-01T17:38:44;5.30;99.90
27619;DHT22;15039;50.830;4.730;2023-03-01T17:41:11;5.40;99.90
27619;DHT22;15039;50.830;4.730;2023-03-01T17:43:37;5.30;99.90
27619;DHT22;15039;50.830;4.730;2023-03-01T17:46:03;5.20;99.90